createdAt,value
2018-06-17T00:00:50.375Z,8.33
2018-06-17T00:03:18.583Z,7.33
2018-06-17T00:05:46.910Z,7.63
2018-06-17T00:08:15.207Z,7.60
2018-06-17T00:10:43.712Z,8.00
2018-06-17T00:13:11.862Z,7.57
2018-06-17T00:15:40.088Z,7.53
2018-06-17T00:18:08.367Z,7.97
2018-06-17T00:20:36.750Z,8.10
2018-06-17T00:23:04.930Z,8.10
2018-06-17T00:25:33.095Z,7.23
2018-06-17T00:28:01.363Z,7.00
2018-06-17T00:30:29.493Z,7.00
2018-06-17T00:32:57.662Z,7.03
2018-06-17T00:35:26.177Z,7.30
2018-06-17T00:37:54.331Z,6.23
2018-06-17T00:40:22.788Z,6.60
2018-06-17T00:42:51.604Z,6.93
2018-06-17T00:45:19.857Z,6.63
2018-06-17T00:47:48.029Z,6.03
2018-06-17T00:50:16.207Z,6.27
2018-06-17T00:52:44.752Z,5.73
2018-06-17T00:55:12.999Z,7.03
2018-06-17T00:57:49.309Z,6.30
2018-06-17T01:00:17.807Z,5.97
2018-06-17T01:02:46.280Z,5.23
2018-06-17T01:05:14.868Z,5.97
2018-06-17T01:07:43.255Z,5.70
2018-06-17T01:10:11.406Z,6.00
2018-06-17T01:12:39.999Z,5.90
2018-06-17T01:15:08.384Z,6.27
2018-06-17T01:17:37.178Z,6.33
2018-06-17T01:20:05.576Z,6.07
2018-06-17T01:22:33.780Z,5.63
2018-06-17T01:25:02.013Z,5.70
2018-06-17T01:27:30.591Z,5.77
2018-06-17T01:29:58.828Z,5.40
2018-06-17T01:32:27.119Z,5.30
2018-06-17T01:34:55.520Z,5.50
2018-06-17T01:37:24.836Z,5.63
2018-06-17T01:39:53.006Z,5.77
2018-06-17T01:42:21.422Z,5.20
2018-06-17T01:44:49.688Z,4.90
2018-06-17T01:47:17.833Z,5.10
2018-06-17T01:49:46.047Z,4.93
2018-06-17T01:52:14.244Z,5.47
2018-06-17T01:54:42.570Z,5.80
2018-06-17T01:57:10.840Z,5.40
2018-06-17T01:59:39.154Z,5.50
2018-06-17T02:02:08.171Z,5.73
2018-06-17T02:04:41.742Z,5.43
2018-06-17T02:07:15.202Z,5.33
2018-06-17T02:09:48.775Z,4.73
2018-06-17T02:12:17.956Z,5.97
2018-06-17T02:14:51.488Z,5.33
2018-06-17T02:17:21.131Z,5.23
2018-06-17T02:19:49.500Z,5.53
2018-06-17T02:22:17.992Z,5.57
2018-06-17T02:24:46.260Z,5.63
2018-06-17T02:27:14.559Z,6.00
2018-06-17T02:29:43.040Z,5.53
2018-06-17T02:32:11.531Z,5.53
2018-06-17T02:34:39.749Z,5.40
2018-06-17T02:37:08.709Z,5.40
2018-06-17T02:39:37.065Z,5.90
2018-06-17T02:42:05.766Z,5.63
2018-06-17T02:44:33.952Z,5.90
2018-06-17T02:47:07.569Z,6.63
2018-06-17T02:49:38.347Z,5.30
2018-06-17T02:52:12.377Z,6.40
2018-06-17T02:54:41.998Z,6.50
2018-06-17T02:57:11.692Z,6.10
2018-06-17T02:59:40.699Z,5.73
2018-06-17T03:02:09.251Z,5.97
2018-06-17T03:04:37.556Z,6.20
2018-06-17T03:07:05.699Z,5.77
2018-06-17T03:09:34.110Z,6.13
2018-06-17T03:12:02.500Z,5.73
2018-06-17T03:14:30.964Z,6.23
2018-06-17T03:16:59.352Z,5.33
2018-06-17T03:19:27.616Z,5.63
2018-06-17T03:21:56.058Z,5.90
2018-06-17T03:24:29.803Z,5.70
2018-06-17T03:27:03.405Z,5.60
2018-06-17T03:29:37.016Z,5.67
2018-06-17T03:32:10.636Z,5.40
2018-06-17T03:34:38.820Z,6.00
2018-06-17T03:37:06.978Z,6.17
2018-06-17T03:39:35.137Z,6.27
2018-06-17T03:42:03.664Z,6.53
2018-06-17T03:44:31.819Z,6.90
2018-06-17T03:46:59.972Z,5.60
2018-06-17T03:49:28.168Z,5.83
2018-06-17T03:51:56.400Z,6.10
2018-06-17T03:54:25.507Z,5.67
2018-06-17T03:56:54.116Z,5.50
2018-06-17T03:59:22.292Z,5.80
2018-06-17T04:01:50.459Z,6.13
2018-06-17T04:04:18.680Z,6.40
2018-06-17T04:06:47.187Z,5.87
2018-06-17T04:09:15.340Z,6.40
2018-06-17T04:11:43.728Z,5.80
2018-06-17T04:14:11.882Z,6.07
2018-06-17T04:16:40.311Z,6.77
2018-06-17T04:19:08.604Z,6.20
2018-06-17T04:21:36.876Z,5.30
2018-06-17T04:24:05.113Z,5.50
2018-06-17T04:26:33.330Z,5.10
2018-06-17T04:29:01.454Z,4.50
2018-06-17T04:31:29.611Z,4.77
2018-06-17T04:33:57.973Z,4.20
2018-06-17T04:36:26.107Z,3.40
2018-06-17T04:38:54.423Z,3.70
2018-06-17T04:41:22.635Z,3.63
2018-06-17T04:43:50.771Z,3.97
2018-06-17T04:46:19.049Z,4.07
2018-06-17T04:48:47.249Z,3.50
2018-06-17T04:51:15.556Z,3.70
2018-06-17T04:53:43.796Z,3.40
2018-06-17T04:56:11.952Z,4.53
2018-06-17T04:58:40.247Z,3.90
2018-06-17T05:01:08.512Z,3.63
2018-06-17T05:03:36.754Z,3.70
2018-06-17T05:06:05.025Z,3.80
2018-06-17T05:08:33.189Z,3.30
2018-06-17T05:11:01.388Z,5.23
2018-06-17T05:13:29.515Z,3.80
2018-06-17T05:15:57.713Z,3.83
2018-06-17T05:18:25.947Z,3.43
2018-06-17T05:20:54.155Z,4.00
2018-06-17T05:23:22.288Z,3.67
2018-06-17T05:25:50.815Z,3.83
2018-06-17T05:28:19.079Z,3.73
2018-06-17T05:30:47.325Z,3.73
2018-06-17T05:33:15.730Z,3.67
2018-06-17T05:35:44.002Z,4.27
2018-06-17T05:38:12.168Z,3.37
2018-06-17T05:40:40.661Z,4.33
2018-06-17T05:43:08.811Z,3.97
2018-06-17T05:45:37.008Z,4.17
2018-06-17T05:48:05.588Z,4.10
2018-06-17T05:50:33.781Z,3.50
2018-06-17T05:53:02.043Z,3.90
2018-06-17T05:55:30.232Z,4.27
2018-06-17T05:57:58.417Z,4.57
2018-06-17T06:00:26.574Z,4.27
2018-06-17T06:02:54.856Z,3.97
2018-06-17T06:05:22.990Z,4.37
2018-06-17T06:07:51.327Z,4.10
2018-06-17T06:10:19.487Z,4.20
2018-06-17T06:12:47.856Z,4.10
2018-06-17T06:15:16.047Z,3.50
2018-06-17T06:17:44.202Z,3.30
2018-06-17T06:20:12.371Z,4.20
2018-06-17T06:22:40.855Z,3.90
2018-06-17T06:25:09.146Z,4.00
2018-06-17T06:27:37.266Z,4.23
2018-06-17T06:30:05.708Z,4.33
2018-06-17T06:32:34.068Z,4.57
2018-06-17T06:35:02.270Z,3.90
2018-06-17T06:37:30.535Z,3.60
2018-06-17T06:39:58.810Z,3.97
2018-06-17T06:42:27.197Z,3.90
2018-06-17T06:44:55.467Z,4.10
2018-06-17T06:47:23.643Z,3.70
2018-06-17T06:49:51.772Z,3.57
2018-06-17T06:52:19.928Z,4.33
2018-06-17T06:54:48.256Z,3.57
2018-06-17T06:57:16.553Z,3.60
2018-06-17T06:59:44.747Z,4.23
2018-06-17T07:02:18.641Z,3.80
2018-06-17T07:04:52.431Z,3.30
2018-06-17T07:07:26.243Z,3.67
2018-06-17T07:09:59.995Z,3.73
2018-06-17T07:12:28.396Z,3.20
2018-06-17T07:14:56.553Z,3.30
2018-06-17T07:17:30.323Z,3.27
2018-06-17T07:19:58.480Z,4.07
2018-06-17T07:22:26.653Z,3.53
2018-06-17T07:24:54.861Z,4.00
2018-06-17T07:27:28.820Z,3.90
2018-06-17T07:29:57.074Z,3.80
2018-06-17T07:32:25.238Z,3.60
2018-06-17T07:34:53.427Z,4.10
2018-06-17T07:37:21.638Z,3.50
2018-06-17T07:40:54.242Z,4.27
2018-06-17T07:43:22.468Z,3.73
2018-06-17T07:45:50.677Z,3.20
2018-06-17T07:48:34.254Z,3.90
2018-06-17T07:51:08.184Z,4.40
2018-06-17T07:53:36.395Z,3.30
2018-06-17T07:56:04.636Z,3.93
2018-06-17T07:58:32.934Z,3.97
2018-06-17T08:01:01.075Z,3.60
2018-06-17T08:03:29.324Z,3.33
2018-06-17T08:05:57.479Z,4.00
2018-06-17T08:08:25.644Z,3.20
2018-06-17T08:10:53.816Z,3.53
2018-06-17T08:13:22.182Z,4.20
2018-06-17T08:15:50.336Z,3.27
2018-06-17T08:18:18.484Z,4.20
2018-06-17T08:20:46.644Z,3.63
2018-06-17T08:23:14.807Z,3.63
2018-06-17T08:25:43.596Z,3.90
2018-06-17T08:28:11.757Z,3.97
2018-06-17T08:30:41.021Z,4.37
2018-06-17T08:33:10.159Z,3.80
2018-06-17T08:35:38.961Z,3.40
2018-06-17T08:38:08.090Z,4.03
2018-06-17T08:40:37.280Z,3.80
2018-06-17T08:43:06.574Z,3.60
2018-06-17T08:45:35.616Z,3.10
2018-06-17T08:48:04.725Z,3.20
2018-06-17T08:50:33.948Z,2.90
2018-06-17T08:53:03.569Z,3.77
2018-06-17T08:55:33.069Z,3.13
2018-06-17T08:58:02.260Z,3.13
2018-06-17T09:00:31.446Z,4.20
2018-06-17T09:03:00.804Z,3.47
2018-06-17T09:05:29.820Z,3.60
2018-06-17T09:07:59.038Z,3.50
2018-06-17T09:10:28.212Z,3.47
2018-06-17T09:12:57.460Z,3.47
2018-06-17T09:15:26.674Z,2.90
2018-06-17T09:17:55.634Z,3.17
2018-06-17T09:20:23.842Z,3.87
2018-06-17T09:22:52.041Z,3.60
2018-06-17T09:25:20.482Z,3.27
2018-06-17T09:27:48.810Z,3.40
2018-06-17T09:30:17.249Z,3.03
2018-06-17T09:32:45.392Z,3.23
2018-06-17T09:35:13.578Z,3.17
2018-06-17T09:37:41.907Z,3.10
2018-06-17T09:40:10.121Z,3.70
2018-06-17T09:42:38.560Z,3.43
2018-06-17T09:45:07.043Z,3.13
2018-06-17T09:47:35.280Z,3.20
2018-06-17T09:50:03.489Z,3.57
2018-06-17T09:52:32.028Z,4.20
2018-06-17T09:55:00.339Z,3.53
2018-06-17T09:57:28.708Z,3.33
2018-06-17T09:59:57.029Z,3.93
2018-06-17T10:02:25.304Z,3.33
2018-06-17T10:04:53.595Z,3.10
2018-06-17T10:07:21.798Z,3.10
2018-06-17T10:09:56.399Z,3.60
2018-06-17T10:12:24.666Z,3.23
2018-06-17T10:14:52.918Z,3.17
2018-06-17T10:17:21.109Z,3.03
2018-06-17T10:19:49.492Z,3.93
2018-06-17T10:22:17.755Z,3.60
2018-06-17T10:24:45.949Z,3.20
2018-06-17T10:27:14.112Z,3.87
2018-06-17T10:29:42.686Z,3.63
2018-06-17T10:32:10.876Z,3.10
2018-06-17T10:34:39.157Z,3.33
2018-06-17T10:37:07.336Z,2.93
2018-06-17T10:39:35.506Z,3.47
2018-06-17T10:42:03.692Z,2.90
2018-06-17T10:44:31.946Z,3.40
2018-06-17T10:47:00.175Z,3.00
2018-06-17T10:49:28.332Z,4.20
2018-06-17T10:51:56.495Z,3.57
2018-06-17T10:54:24.707Z,4.00
2018-06-17T10:56:52.973Z,3.30
2018-06-17T10:59:21.495Z,3.00
2018-06-17T11:01:49.690Z,2.80
2018-06-17T11:04:17.880Z,3.20
2018-06-17T11:06:46.032Z,2.67
2018-06-17T11:09:14.239Z,3.03
2018-06-17T11:11:42.610Z,2.60
2018-06-17T11:14:10.917Z,3.33
2018-06-17T11:16:39.336Z,2.93
2018-06-17T11:19:07.536Z,2.90
2018-06-17T11:21:35.693Z,3.40
2018-06-17T11:24:03.881Z,3.37
2018-06-17T11:26:32.164Z,3.37
2018-06-17T11:29:00.555Z,3.33
2018-06-17T11:31:28.856Z,3.33
2018-06-17T11:33:57.096Z,3.20
2018-06-17T11:36:25.267Z,3.00
2018-06-17T11:38:53.503Z,4.00
2018-06-17T11:41:21.774Z,3.60
2018-06-17T11:43:49.916Z,3.00
2018-06-17T11:46:18.120Z,3.20
2018-06-17T11:48:46.660Z,3.47
2018-06-17T11:51:14.849Z,3.13
2018-06-17T11:53:43.003Z,3.10
2018-06-17T11:56:11.371Z,2.77
2018-06-17T11:58:39.483Z,3.10
2018-06-17T12:01:07.667Z,3.20
2018-06-17T12:03:36.119Z,3.43
2018-06-17T12:06:04.478Z,3.33
2018-06-17T12:08:32.788Z,3.50
2018-06-17T12:11:01.257Z,2.70
2018-06-17T12:13:29.891Z,2.90
2018-06-17T12:15:58.170Z,2.83
2018-06-17T12:18:26.370Z,3.40
2018-06-17T12:20:54.615Z,3.20
2018-06-17T12:23:22.983Z,3.30
2018-06-17T12:25:51.121Z,3.90
2018-06-17T12:28:19.337Z,3.33
2018-06-17T12:30:47.612Z,3.10
2018-06-17T12:33:15.761Z,3.43
2018-06-17T12:35:43.978Z,3.27
2018-06-17T12:38:12.197Z,3.37
2018-06-17T12:40:40.525Z,3.20
2018-06-17T12:43:08.835Z,3.40
2018-06-17T12:45:36.976Z,3.50
2018-06-17T12:48:05.144Z,3.50
2018-06-17T12:50:33.486Z,3.10
2018-06-17T12:53:03.503Z,3.50
2018-06-17T12:55:31.769Z,3.70
2018-06-17T12:58:00.000Z,3.57
2018-06-17T13:00:28.654Z,3.07
2018-06-17T13:02:56.844Z,3.47
2018-06-17T13:05:24.986Z,3.87
2018-06-17T13:07:53.173Z,3.00
2018-06-17T13:10:21.312Z,3.00
2018-06-17T13:12:49.896Z,3.40
2018-06-17T13:15:18.221Z,3.00
2018-06-17T13:17:46.394Z,3.57
2018-06-17T13:20:14.518Z,2.90
2018-06-17T13:22:42.679Z,3.37
2018-06-17T13:25:11.207Z,3.13
2018-06-17T13:27:39.428Z,3.03
2018-06-17T13:30:07.588Z,3.50
2018-06-17T13:32:35.789Z,2.93
2018-06-17T13:35:04.417Z,3.57
2018-06-17T13:37:34.006Z,2.60
2018-06-17T13:40:02.249Z,2.90
2018-06-17T13:42:30.424Z,3.00
2018-06-17T13:44:58.567Z,2.83
2018-06-17T13:47:26.765Z,2.70
2018-06-17T13:49:54.920Z,2.83
2018-06-17T13:52:23.242Z,2.60
2018-06-17T13:54:51.448Z,2.43
2018-06-17T13:57:19.708Z,2.67
2018-06-17T13:59:47.866Z,2.80
2018-06-17T14:02:16.078Z,3.10
2018-06-17T14:04:44.410Z,2.40
2018-06-17T14:07:12.543Z,2.40
2018-06-17T14:09:40.772Z,2.60
2018-06-17T14:12:08.914Z,2.50
2018-06-17T14:14:37.243Z,2.20
2018-06-17T14:17:05.866Z,2.30
2018-06-17T14:19:34.158Z,2.70
2018-06-17T14:22:03.149Z,2.80
2018-06-17T14:24:31.284Z,2.43
2018-06-17T14:26:59.496Z,2.63
2018-06-17T14:29:27.623Z,2.50
2018-06-17T14:31:55.893Z,2.93
2018-06-17T14:34:24.093Z,2.90
2018-06-17T14:36:52.261Z,3.20
2018-06-17T14:39:20.702Z,5.43
2018-06-17T14:41:54.289Z,5.00
2018-06-17T14:44:27.811Z,2.80
2018-06-17T14:47:01.625Z,2.90
2018-06-17T14:49:35.067Z,2.23
2018-06-17T14:53:07.648Z,2.87
2018-06-17T14:55:35.928Z,2.80
2018-06-17T14:58:04.315Z,2.30
2018-06-17T15:00:32.622Z,3.23
2018-06-17T15:03:00.888Z,3.07
2018-06-17T15:05:29.125Z,2.27
2018-06-17T15:07:57.317Z,2.43
2018-06-17T15:10:25.490Z,2.57
2018-06-17T15:12:53.916Z,2.50
2018-06-17T15:15:22.309Z,2.90
2018-06-17T15:17:50.554Z,2.57
2018-06-17T15:20:18.744Z,2.40
2018-06-17T15:22:47.509Z,2.90
2018-06-17T15:25:15.744Z,2.67
2018-06-17T15:27:44.068Z,2.80
2018-06-17T15:30:12.232Z,3.50
2018-06-17T15:32:46.160Z,3.17
2018-06-17T15:35:19.864Z,3.43
2018-06-17T15:37:53.453Z,2.97
2018-06-17T15:40:25.988Z,2.63
2018-06-17T15:42:54.236Z,2.90
2018-06-17T15:45:22.511Z,3.27
2018-06-17T15:47:50.670Z,2.70
2018-06-17T15:50:18.912Z,3.17
2018-06-17T15:52:47.118Z,3.23
2018-06-17T15:55:15.264Z,3.20
2018-06-17T15:57:43.460Z,3.10
2018-06-17T16:00:11.588Z,3.60
2018-06-17T16:02:39.776Z,4.20
2018-06-17T16:05:07.961Z,3.17
2018-06-17T16:07:36.324Z,3.43
2018-06-17T16:10:04.552Z,3.00
2018-06-17T16:12:38.255Z,3.97
2018-06-17T16:15:11.713Z,3.20
2018-06-17T16:17:45.191Z,3.07
2018-06-17T16:20:18.722Z,3.17
2018-06-17T16:22:46.952Z,3.70
2018-06-17T16:25:15.194Z,3.03
2018-06-17T16:27:43.352Z,3.77
2018-06-17T16:30:11.564Z,2.90
2018-06-17T16:32:39.664Z,3.20
2018-06-17T16:35:07.962Z,3.03
2018-06-17T16:37:36.187Z,2.90
2018-06-17T16:40:04.402Z,3.20
2018-06-17T16:42:32.910Z,3.23
2018-06-17T16:45:01.199Z,2.57
2018-06-17T16:47:29.361Z,3.07
2018-06-17T16:49:57.513Z,3.23
2018-06-17T16:52:31.044Z,3.00
2018-06-17T16:55:03.118Z,3.00
2018-06-17T16:57:36.873Z,3.33
2018-06-17T17:00:13.308Z,3.10
2018-06-17T17:02:41.488Z,3.20
2018-06-17T17:05:09.776Z,3.47
2018-06-17T17:07:38.073Z,3.87
2018-06-17T17:10:06.617Z,3.30
2018-06-17T17:12:34.788Z,3.50
2018-06-17T17:15:02.926Z,3.73
2018-06-17T17:17:31.108Z,4.30
2018-06-17T17:19:59.274Z,2.90
2018-06-17T17:22:27.496Z,3.40
2018-06-17T17:24:55.667Z,2.60
2018-06-17T17:27:24.005Z,3.47
2018-06-17T17:29:52.562Z,3.37
2018-06-17T17:32:26.011Z,3.60
2018-06-17T17:34:59.648Z,3.67
2018-06-17T17:37:33.217Z,3.20
2018-06-17T17:40:06.726Z,3.50
2018-06-17T17:42:35.098Z,2.97
2018-06-17T17:45:04.216Z,3.60
2018-06-17T17:47:33.394Z,3.70
2018-06-17T17:50:01.572Z,3.20
2018-06-17T17:52:29.797Z,2.90
2018-06-17T17:54:58.124Z,3.20
2018-06-17T17:57:26.317Z,3.60
2018-06-17T17:59:54.964Z,3.57
2018-06-17T18:02:23.199Z,3.37
2018-06-17T18:04:51.500Z,3.87
2018-06-17T18:07:19.707Z,3.40
2018-06-17T18:09:47.927Z,3.03
2018-06-17T18:12:16.135Z,2.90
2018-06-17T18:14:44.293Z,3.50
2018-06-17T18:17:12.482Z,3.60
2018-06-17T18:19:40.741Z,3.00
2018-06-17T18:22:09.066Z,3.43
2018-06-17T18:24:37.230Z,3.17
2018-06-17T18:27:10.667Z,3.37
2018-06-17T18:29:44.275Z,2.70
2018-06-17T18:32:17.996Z,3.07
2018-06-17T18:34:51.656Z,3.50
2018-06-17T18:37:19.848Z,3.00
2018-06-17T18:39:48.022Z,2.70
2018-06-17T18:42:16.347Z,3.53
2018-06-17T18:44:44.679Z,3.50
2018-06-17T18:47:13.108Z,3.37
2018-06-17T18:49:41.333Z,3.30
2018-06-17T18:52:09.483Z,3.70
2018-06-17T18:54:37.667Z,3.80
2018-06-17T18:57:05.832Z,3.80
2018-06-17T18:59:34.228Z,3.40
2018-06-17T19:02:03.022Z,4.10
2018-06-17T19:04:31.554Z,3.70
2018-06-17T19:06:59.737Z,3.83
2018-06-17T19:09:33.337Z,3.27
2018-06-17T19:12:07.036Z,3.83
2018-06-17T19:14:40.755Z,3.23
2018-06-17T19:17:14.449Z,3.80
2018-06-17T19:19:42.743Z,3.43
2018-06-17T19:22:10.910Z,4.40
2018-06-17T19:24:39.320Z,4.93
2018-06-17T19:27:07.479Z,4.50
2018-06-17T19:29:35.659Z,4.13
2018-06-17T19:32:04.264Z,3.93
2018-06-17T19:34:32.600Z,3.90
2018-06-17T19:37:00.905Z,3.90
2018-06-17T19:39:29.067Z,3.60
2018-06-17T19:41:57.351Z,3.67
2018-06-17T19:44:25.524Z,3.93
2018-06-17T19:46:53.861Z,3.70
2018-06-17T19:49:26.531Z,3.13
2018-06-17T19:52:00.180Z,3.37
2018-06-17T19:54:33.810Z,3.60
2018-06-17T19:57:07.422Z,4.00
2018-06-17T19:59:41.006Z,3.50
2018-06-17T20:02:09.183Z,3.73
2018-06-17T20:04:37.569Z,4.00
2018-06-17T20:07:06.034Z,3.70
2018-06-17T20:09:34.219Z,3.80
2018-06-17T20:12:02.485Z,3.40
2018-06-17T20:14:31.205Z,3.83
2018-06-17T20:16:59.576Z,3.93
2018-06-17T20:19:27.954Z,3.37
2018-06-17T20:21:56.116Z,3.97
2018-06-17T20:24:24.285Z,3.83
2018-06-17T20:26:52.497Z,3.20
2018-06-17T20:29:20.845Z,3.80
2018-06-17T20:31:54.716Z,3.60
2018-06-17T20:34:28.848Z,3.70
2018-06-17T20:37:02.851Z,3.70
2018-06-17T20:39:36.881Z,4.37
2018-06-17T20:42:10.480Z,3.53
2018-06-17T20:44:39.068Z,3.90
2018-06-17T20:47:07.353Z,3.87
2018-06-17T20:49:35.605Z,3.83
2018-06-17T20:52:03.799Z,3.70
2018-06-17T20:54:31.959Z,4.00
2018-06-17T20:57:00.175Z,4.20
2018-06-17T20:59:28.438Z,3.77
2018-06-17T21:01:56.709Z,3.67
2018-06-17T21:04:24.860Z,4.20
2018-06-17T21:06:53.067Z,4.03
2018-06-17T21:09:21.208Z,4.40
2018-06-17T21:11:49.465Z,3.63
2018-06-17T21:14:17.880Z,4.00
2018-06-17T21:16:46.180Z,4.27
2018-06-17T21:19:19.748Z,3.87
2018-06-17T21:21:53.511Z,4.13
2018-06-17T21:25:30.243Z,4.20
2018-06-17T21:28:00.081Z,3.63
2018-06-17T21:30:28.352Z,4.20
2018-06-17T21:32:56.831Z,4.33
2018-06-17T21:35:25.496Z,4.10
2018-06-17T21:37:53.719Z,4.70
2018-06-17T21:40:21.874Z,4.10
2018-06-17T21:42:50.179Z,4.80
2018-06-17T21:45:18.386Z,4.30
2018-06-17T21:47:46.615Z,5.00
2018-06-17T21:50:14.798Z,4.90
2018-06-17T21:52:42.995Z,5.83
2018-06-17T21:55:11.631Z,5.67
2018-06-17T21:57:39.812Z,5.37
2018-06-17T22:00:08.815Z,4.40
2018-06-17T22:02:44.483Z,4.10
2018-06-17T22:05:13.760Z,4.70
2018-06-17T22:07:47.451Z,4.47
2018-06-17T22:11:19.229Z,4.93
2018-06-17T22:13:52.843Z,4.60
2018-06-17T22:16:26.421Z,4.37
2018-06-17T22:18:55.131Z,3.97
2018-06-17T22:21:23.443Z,4.30
2018-06-17T22:23:51.982Z,4.47
2018-06-17T22:26:20.293Z,4.43
2018-06-17T22:28:48.515Z,4.73
2018-06-17T22:31:16.693Z,4.30
2018-06-17T22:33:44.864Z,4.73
2018-06-17T22:36:13.055Z,4.20
2018-06-17T22:38:41.343Z,4.70
2018-06-17T22:41:09.508Z,4.97
2018-06-17T22:43:37.668Z,5.30
2018-06-17T22:46:05.902Z,4.83
2018-06-17T22:48:34.030Z,4.70
2018-06-17T22:51:02.222Z,5.23
2018-06-17T22:53:36.028Z,5.27
2018-06-17T22:56:08.856Z,5.23
2018-06-17T22:59:43.036Z,4.23
2018-06-17T23:02:16.715Z,5.30
2018-06-17T23:04:50.571Z,4.70
2018-06-17T23:07:24.310Z,4.83
2018-06-17T23:09:53.194Z,5.00
2018-06-17T23:12:21.612Z,5.00
2018-06-17T23:14:49.912Z,4.87
2018-06-17T23:17:18.172Z,4.53
2018-06-17T23:19:46.576Z,5.20
2018-06-17T23:22:14.832Z,4.90
2018-06-17T23:24:43.114Z,5.17
2018-06-17T23:27:11.472Z,5.00
2018-06-17T23:29:39.648Z,4.80
2018-06-17T23:32:08.068Z,5.00
2018-06-17T23:34:36.204Z,4.97
2018-06-17T23:37:04.450Z,5.17
2018-06-17T23:39:32.859Z,4.50
2018-06-17T23:42:01.272Z,5.00
2018-06-17T23:44:29.400Z,5.40
2018-06-17T23:47:02.889Z,4.60
2018-06-17T23:50:40.975Z,4.90
2018-06-17T23:53:14.549Z,4.57
2018-06-17T23:55:48.298Z,4.20
2018-06-17T23:58:16.835Z,4.47
